KDYR

Dyersburg Regional Airport

Dyersburg, Tennessee, USA
METAR KDYR 202356Z AUTO 19005KT 10SM FEW031 SCT095 27/24 A2983 RMK AO2 LTG DSNT ALQDS RAB38E48 SLP110 6//// T02720239 10294 20233 56005 PNO $
Observed Flight Rules
Aug-20 @ 23:56 UTC (11 minutes ago) Visual Flight Rules
Wind Visibility Clouds
190° at 5 knots 10 miles
  • Few at 3,100' AGL
  • Scattered at 9,500' AGL
Temperatures Readings
Current 27°C / 81°F
Dewpoint 24°C / 75°F
Humidity 84%
Altimeter 29.83" Hg
Pressure 1011 hPa
Elevation 103
METAR KDYR 202356Z AUTO 19005KT 10SM FEW031 SCT095 27/24 A2983 RMK AO2 LTG DSNT ALQDS RAB38E48 SLP110 6//// T02720239 10294 20233 56005 PNO $
Observed Flight Rules
Aug-20 @ 23:56 UTC
(11 minutes ago)
VFR
Wind Visibility
190° at 5 knots 10 miles
Clouds
  • Few at 3,100' AGL
  • Scattered at 9,500' AGL
Temperature Dewpoint
27°C / 81°F 24°C / 75°F
Humidity Altimeter Pressure
84% 29.83" Hg 1011 hPa